sensor_id;sensor_type;location;lat;lon;timestamp;P1;durP1;ratioP1;P2;durP2;ratioP2
46080;SDS011;31821;51.880;-0.518;2022-09-12T00:00:27;2.60;;;1.88;;
46080;SDS011;31821;51.880;-0.518;2022-09-12T00:02:53;2.95;;;2.33;;
46080;SDS011;31821;51.880;-0.518;2022-09-12T00:05:19;2.75;;;2.10;;
46080;SDS011;31821;51.880;-0.518;2022-09-12T00:07:46;2.83;;;2.00;;
46080;SDS011;31821;51.880;-0.518;2022-09-12T00:10:12;3.90;;;2.45;;
46080;SDS011;31821;51.880;-0.518;2022-09-12T00:12:37;3.30;;;2.30;;
46080;SDS011;31821;51.880;-0.518;2022-09-12T00:15:03;3.38;;;2.35;;
46080;SDS011;31821;51.880;-0.518;2022-09-12T00:17:29;3.47;;;2.10;;
46080;SDS011;31821;51.880;-0.518;2022-09-12T00:19:55;2.95;;;2.28;;
46080;SDS011;31821;51.880;-0.518;2022-09-12T00:22:20;3.10;;;2.10;;
46080;SDS011;31821;51.880;-0.518;2022-09-12T00:24:46;3.00;;;2.47;;
46080;SDS011;31821;51.880;-0.518;2022-09-12T00:27:11;3.55;;;2.25;;
46080;SDS011;31821;51.880;-0.518;2022-09-12T00:29:37;3.22;;;2.20;;
46080;SDS011;31821;51.880;-0.518;2022-09-12T00:32:02;3.10;;;2.50;;
46080;SDS011;31821;51.880;-0.518;2022-09-12T00:34:28;2.85;;;2.20;;
46080;SDS011;31821;51.880;-0.518;2022-09-12T00:36:54;3.03;;;2.10;;
46080;SDS011;31821;51.880;-0.518;2022-09-12T00:39:19;2.58;;;2.15;;
46080;SDS011;31821;51.880;-0.518;2022-09-12T00:41:45;3.20;;;2.20;;
46080;SDS011;31821;51.880;-0.518;2022-09-12T00:46:47;2.60;;;2.13;;
46080;SDS011;31821;51.880;-0.518;2022-09-12T00:55:05;2.90;;;2.00;;
46080;SDS011;31821;51.880;-0.518;2022-09-12T00:57:36;2.75;;;2.40;;
46080;SDS011;31821;51.880;-0.518;2022-09-12T01:00:10;3.55;;;2.33;;
46080;SDS011;31821;51.880;-0.518;2022-09-12T01:02:59;2.92;;;2.20;;
46080;SDS011;31821;51.880;-0.518;2022-09-12T01:05:28;2.25;;;2.00;;
46080;SDS011;31821;51.880;-0.518;2022-09-12T01:07:57;2.72;;;2.25;;
46080;SDS011;31821;51.880;-0.518;2022-09-12T01:10:25;2.83;;;2.00;;
46080;SDS011;31821;51.880;-0.518;2022-09-12T01:12:51;3.35;;;2.20;;
46080;SDS011;31821;51.880;-0.518;2022-09-12T01:15:16;3.20;;;2.30;;
46080;SDS011;31821;51.880;-0.518;2022-09-12T01:17:47;2.67;;;2.13;;
46080;SDS011;31821;51.880;-0.518;2022-09-12T01:20:20;3.30;;;2.10;;
46080;SDS011;31821;51.880;-0.518;2022-09-12T01:36:10;2.40;;;1.95;;
46080;SDS011;31821;51.880;-0.518;2022-09-12T01:39:05;2.67;;;1.92;;
46080;SDS011;31821;51.880;-0.518;2022-09-12T01:41:54;2.88;;;2.10;;
46080;SDS011;31821;51.880;-0.518;2022-09-12T01:44:49;3.45;;;2.40;;
46080;SDS011;31821;51.880;-0.518;2022-09-12T01:47:32;3.17;;;2.30;;
46080;SDS011;31821;51.880;-0.518;2022-09-12T01:50:06;2.65;;;2.42;;
46080;SDS011;31821;51.880;-0.518;2022-09-12T01:55:15;2.40;;;2.20;;
46080;SDS011;31821;51.880;-0.518;2022-09-12T01:57:56;3.67;;;2.10;;
46080;SDS011;31821;51.880;-0.518;2022-09-12T02:00:23;2.50;;;2.20;;
46080;SDS011;31821;51.880;-0.518;2022-09-12T02:02:53;3.80;;;2.13;;
46080;SDS011;31821;51.880;-0.518;2022-09-12T02:08:07;2.88;;;2.20;;
46080;SDS011;31821;51.880;-0.518;2022-09-12T02:10:40;2.83;;;2.15;;
46080;SDS011;31821;51.880;-0.518;2022-09-12T02:13:46;3.17;;;2.22;;
46080;SDS011;31821;51.880;-0.518;2022-09-12T02:16:09;3.05;;;2.30;;
46080;SDS011;31821;51.880;-0.518;2022-09-12T02:18:42;2.20;;;2.00;;
46080;SDS011;31821;51.880;-0.518;2022-09-12T02:21:10;2.80;;;2.47;;
46080;SDS011;31821;51.880;-0.518;2022-09-12T02:23:38;2.63;;;2.05;;
46080;SDS011;31821;51.880;-0.518;2022-09-12T02:26:12;2.80;;;2.25;;
46080;SDS011;31821;51.880;-0.518;2022-09-12T02:28:47;3.22;;;2.10;;
46080;SDS011;31821;51.880;-0.518;2022-09-12T02:34:12;2.63;;;2.20;;
46080;SDS011;31821;51.880;-0.518;2022-09-12T02:39:17;3.00;;;2.40;;
46080;SDS011;31821;51.880;-0.518;2022-09-12T02:41:45;3.10;;;2.40;;
46080;SDS011;31821;51.880;-0.518;2022-09-12T02:44:19;3.63;;;2.88;;
46080;SDS011;31821;51.880;-0.518;2022-09-12T02:46:45;3.72;;;2.85;;
46080;SDS011;31821;51.880;-0.518;2022-09-12T02:49:15;2.97;;;2.40;;
46080;SDS011;31821;51.880;-0.518;2022-09-12T02:51:41;2.92;;;2.20;;
46080;SDS011;31821;51.880;-0.518;2022-09-12T02:54:07;3.60;;;2.75;;
46080;SDS011;31821;51.880;-0.518;2022-09-12T02:56:34;3.65;;;2.67;;
46080;SDS011;31821;51.880;-0.518;2022-09-12T02:59:02;3.80;;;2.78;;
46080;SDS011;31821;51.880;-0.518;2022-09-12T03:01:43;3.25;;;2.65;;
46080;SDS011;31821;51.880;-0.518;2022-09-12T03:17:40;3.47;;;2.50;;
46080;SDS011;31821;51.880;-0.518;2022-09-12T03:20:21;3.28;;;2.90;;
46080;SDS011;31821;51.880;-0.518;2022-09-12T03:22:55;3.25;;;2.85;;
46080;SDS011;31821;51.880;-0.518;2022-09-12T03:28:05;3.03;;;2.65;;
46080;SDS011;31821;51.880;-0.518;2022-09-12T03:30:44;3.78;;;2.80;;
46080;SDS011;31821;51.880;-0.518;2022-09-12T03:33:13;2.70;;;2.33;;
46080;SDS011;31821;51.880;-0.518;2022-09-12T03:35:40;3.00;;;2.70;;
46080;SDS011;31821;51.880;-0.518;2022-09-12T03:38:08;3.47;;;2.45;;
46080;SDS011;31821;51.880;-0.518;2022-09-12T03:40:34;3.08;;;2.65;;
46080;SDS011;31821;51.880;-0.518;2022-09-12T03:43:00;2.88;;;2.38;;
46080;SDS011;31821;51.880;-0.518;2022-09-12T03:45:25;3.10;;;2.70;;
46080;SDS011;31821;51.880;-0.518;2022-09-12T03:47:51;3.30;;;2.42;;
46080;SDS011;31821;51.880;-0.518;2022-09-12T03:50:16;3.30;;;2.70;;
46080;SDS011;31821;51.880;-0.518;2022-09-12T03:52:42;3.75;;;3.20;;
46080;SDS011;31821;51.880;-0.518;2022-09-12T03:55:07;2.88;;;2.53;;
46080;SDS011;31821;51.880;-0.518;2022-09-12T03:57:33;2.85;;;2.55;;
46080;SDS011;31821;51.880;-0.518;2022-09-12T03:59:59;3.30;;;3.00;;
46080;SDS011;31821;51.880;-0.518;2022-09-12T04:02:26;3.20;;;2.65;;
46080;SDS011;31821;51.880;-0.518;2022-09-12T04:04:52;4.05;;;2.97;;
46080;SDS011;31821;51.880;-0.518;2022-09-12T04:07:17;2.90;;;2.60;;
46080;SDS011;31821;51.880;-0.518;2022-09-12T04:09:43;2.78;;;2.55;;
46080;SDS011;31821;51.880;-0.518;2022-09-12T04:12:08;3.30;;;2.53;;
46080;SDS011;31821;51.880;-0.518;2022-09-12T04:14:34;2.92;;;2.30;;
46080;SDS011;31821;51.880;-0.518;2022-09-12T04:17:00;3.05;;;2.75;;
46080;SDS011;31821;51.880;-0.518;2022-09-12T04:19:25;2.95;;;2.65;;
46080;SDS011;31821;51.880;-0.518;2022-09-12T04:21:51;3.05;;;2.75;;
46080;SDS011;31821;51.880;-0.518;2022-09-12T04:24:17;3.22;;;2.75;;
46080;SDS011;31821;51.880;-0.518;2022-09-12T04:26:42;3.22;;;2.65;;
46080;SDS011;31821;51.880;-0.518;2022-09-12T04:29:09;4.07;;;2.72;;
46080;SDS011;31821;51.880;-0.518;2022-09-12T04:31:36;3.38;;;2.60;;
46080;SDS011;31821;51.880;-0.518;2022-09-12T04:34:02;3.55;;;2.80;;
46080;SDS011;31821;51.880;-0.518;2022-09-12T04:36:29;3.05;;;2.75;;
46080;SDS011;31821;51.880;-0.518;2022-09-12T04:38:55;3.15;;;2.58;;
46080;SDS011;31821;51.880;-0.518;2022-09-12T04:41:22;2.90;;;2.60;;
46080;SDS011;31821;51.880;-0.518;2022-09-12T04:43:51;3.00;;;2.40;;
46080;SDS011;31821;51.880;-0.518;2022-09-12T04:46:23;3.25;;;2.70;;
46080;SDS011;31821;51.880;-0.518;2022-09-12T04:48:50;3.75;;;2.95;;
46080;SDS011;31821;51.880;-0.518;2022-09-12T04:51:17;3.22;;;2.83;;
46080;SDS011;31821;51.880;-0.518;2022-09-12T04:53:50;3.25;;;2.60;;
46080;SDS011;31821;51.880;-0.518;2022-09-12T04:56:17;2.90;;;2.60;;
46080;SDS011;31821;51.880;-0.518;2022-09-12T04:58:44;2.95;;;2.65;;
46080;SDS011;31821;51.880;-0.518;2022-09-12T05:01:11;3.05;;;2.50;;
46080;SDS011;31821;51.880;-0.518;2022-09-12T05:03:38;4.55;;;2.92;;
46080;SDS011;31821;51.880;-0.518;2022-09-12T05:06:07;3.08;;;2.70;;
46080;SDS011;31821;51.880;-0.518;2022-09-12T05:08:37;3.70;;;2.75;;
46080;SDS011;31821;51.880;-0.518;2022-09-12T05:11:03;3.10;;;2.80;;
46080;SDS011;31821;51.880;-0.518;2022-09-12T05:13:31;3.42;;;2.75;;
46080;SDS011;31821;51.880;-0.518;2022-09-12T05:15:57;3.25;;;2.60;;
46080;SDS011;31821;51.880;-0.518;2022-09-12T05:18:25;4.05;;;3.00;;
46080;SDS011;31821;51.880;-0.518;2022-09-12T05:20:51;3.58;;;2.90;;
46080;SDS011;31821;51.880;-0.518;2022-09-12T05:23:17;3.10;;;2.80;;
46080;SDS011;31821;51.880;-0.518;2022-09-12T05:25:50;2.95;;;2.60;;
46080;SDS011;31821;51.880;-0.518;2022-09-12T05:28:17;2.60;;;2.40;;
46080;SDS011;31821;51.880;-0.518;2022-09-12T05:30:43;3.47;;;2.75;;
46080;SDS011;31821;51.880;-0.518;2022-09-12T05:33:09;3.45;;;2.80;;
46080;SDS011;31821;51.880;-0.518;2022-09-12T05:35:35;2.80;;;2.55;;
46080;SDS011;31821;51.880;-0.518;2022-09-12T05:38:02;3.58;;;2.50;;
46080;SDS011;31821;51.880;-0.518;2022-09-12T05:40:29;3.15;;;2.58;;
46080;SDS011;31821;51.880;-0.518;2022-09-12T05:42:54;3.13;;;2.83;;
46080;SDS011;31821;51.880;-0.518;2022-09-12T05:45:20;3.53;;;3.10;;
46080;SDS011;31821;51.880;-0.518;2022-09-12T05:47:46;3.45;;;3.00;;
46080;SDS011;31821;51.880;-0.518;2022-09-12T05:50:11;3.50;;;2.72;;
46080;SDS011;31821;51.880;-0.518;2022-09-12T05:52:37;4.13;;;3.10;;
46080;SDS011;31821;51.880;-0.518;2022-09-12T05:55:03;3.35;;;2.55;;
46080;SDS011;31821;51.880;-0.518;2022-09-12T05:57:29;3.28;;;2.90;;
46080;SDS011;31821;51.880;-0.518;2022-09-12T05:59:54;3.55;;;2.83;;
46080;SDS011;31821;51.880;-0.518;2022-09-12T06:02:20;3.40;;;3.00;;
46080;SDS011;31821;51.880;-0.518;2022-09-12T06:04:45;3.25;;;2.85;;
46080;SDS011;31821;51.880;-0.518;2022-09-12T06:07:11;3.20;;;2.90;;
46080;SDS011;31821;51.880;-0.518;2022-09-12T06:09:37;3.22;;;2.90;;
46080;SDS011;31821;51.880;-0.518;2022-09-12T06:12:03;3.53;;;3.00;;
46080;SDS011;31821;51.880;-0.518;2022-09-12T06:14:28;3.30;;;3.00;;
46080;SDS011;31821;51.880;-0.518;2022-09-12T06:16:54;3.88;;;3.00;;
46080;SDS011;31821;51.880;-0.518;2022-09-12T06:19:20;3.25;;;2.75;;
46080;SDS011;31821;51.880;-0.518;2022-09-12T06:21:48;3.58;;;3.28;;
46080;SDS011;31821;51.880;-0.518;2022-09-12T06:24:14;3.42;;;3.10;;
46080;SDS011;31821;51.880;-0.518;2022-09-12T06:26:41;3.95;;;3.25;;
46080;SDS011;31821;51.880;-0.518;2022-09-12T06:29:08;3.45;;;2.95;;
46080;SDS011;31821;51.880;-0.518;2022-09-12T06:31:36;4.20;;;3.00;;
46080;SDS011;31821;51.880;-0.518;2022-09-12T06:34:06;5.30;;;3.00;;
46080;SDS011;31821;51.880;-0.518;2022-09-12T06:36:41;3.97;;;3.10;;
46080;SDS011;31821;51.880;-0.518;2022-09-12T06:39:10;4.40;;;3.15;;
46080;SDS011;31821;51.880;-0.518;2022-09-12T06:41:49;3.67;;;3.10;;
46080;SDS011;31821;51.880;-0.518;2022-09-12T06:44:17;3.35;;;2.85;;
46080;SDS011;31821;51.880;-0.518;2022-09-12T06:46:45;3.05;;;2.70;;
46080;SDS011;31821;51.880;-0.518;2022-09-12T06:49:11;2.88;;;2.60;;
46080;SDS011;31821;51.880;-0.518;2022-09-12T06:51:37;3.35;;;2.67;;
46080;SDS011;31821;51.880;-0.518;2022-09-12T06:54:02;3.15;;;2.63;;
46080;SDS011;31821;51.880;-0.518;2022-09-12T06:56:29;3.20;;;2.70;;
46080;SDS011;31821;51.880;-0.518;2022-09-12T06:58:55;3.13;;;2.80;;
46080;SDS011;31821;51.880;-0.518;2022-09-12T07:01:22;2.95;;;2.60;;
46080;SDS011;31821;51.880;-0.518;2022-09-12T07:03:53;2.78;;;2.50;;
46080;SDS011;31821;51.880;-0.518;2022-09-12T07:06:21;4.03;;;2.95;;
46080;SDS011;31821;51.880;-0.518;2022-09-12T07:08:48;3.10;;;2.38;;
46080;SDS011;31821;51.880;-0.518;2022-09-12T07:11:16;2.60;;;2.38;;
46080;SDS011;31821;51.880;-0.518;2022-09-12T07:13:43;9.43;;;5.78;;
46080;SDS011;31821;51.880;-0.518;2022-09-12T07:16:10;9.50;;;6.40;;
46080;SDS011;31821;51.880;-0.518;2022-09-12T07:18:37;8.50;;;6.65;;
46080;SDS011;31821;51.880;-0.518;2022-09-12T07:21:05;9.05;;;6.68;;
46080;SDS011;31821;51.880;-0.518;2022-09-12T07:23:32;8.00;;;6.32;;
46080;SDS011;31821;51.880;-0.518;2022-09-12T07:25:59;7.47;;;6.55;;
46080;SDS011;31821;51.880;-0.518;2022-09-12T07:28:25;10.18;;;7.22;;
46080;SDS011;31821;51.880;-0.518;2022-09-12T07:30:52;7.80;;;7.00;;
46080;SDS011;31821;51.880;-0.518;2022-09-12T07:33:22;7.63;;;5.78;;
46080;SDS011;31821;51.880;-0.518;2022-09-12T07:35:50;7.40;;;6.45;;
46080;SDS011;31821;51.880;-0.518;2022-09-12T07:38:18;8.20;;;6.50;;
46080;SDS011;31821;51.880;-0.518;2022-09-12T07:40:45;9.75;;;7.30;;
46080;SDS011;31821;51.880;-0.518;2022-09-12T07:43:10;7.20;;;5.75;;
46080;SDS011;31821;51.880;-0.518;2022-09-12T07:45:36;8.40;;;6.55;;
46080;SDS011;31821;51.880;-0.518;2022-09-12T07:48:05;8.95;;;6.05;;
46080;SDS011;31821;51.880;-0.518;2022-09-12T07:50:31;9.15;;;6.70;;
46080;SDS011;31821;51.880;-0.518;2022-09-12T07:52:57;6.78;;;5.03;;
46080;SDS011;31821;51.880;-0.518;2022-09-12T07:55:23;6.25;;;5.03;;
46080;SDS011;31821;51.880;-0.518;2022-09-12T07:57:49;7.38;;;5.53;;
46080;SDS011;31821;51.880;-0.518;2022-09-12T08:00:16;8.32;;;5.20;;
46080;SDS011;31821;51.880;-0.518;2022-09-12T08:02:42;5.45;;;4.38;;
46080;SDS011;31821;51.880;-0.518;2022-09-12T08:05:07;5.95;;;4.65;;
46080;SDS011;31821;51.880;-0.518;2022-09-12T08:07:33;7.35;;;4.63;;
46080;SDS011;31821;51.880;-0.518;2022-09-12T08:09:59;5.55;;;4.25;;
46080;SDS011;31821;51.880;-0.518;2022-09-12T08:12:26;5.53;;;4.40;;
46080;SDS011;31821;51.880;-0.518;2022-09-12T08:14:52;6.18;;;4.68;;
46080;SDS011;31821;51.880;-0.518;2022-09-12T08:17:17;4.18;;;3.63;;
46080;SDS011;31821;51.880;-0.518;2022-09-12T08:19:43;6.80;;;4.40;;
46080;SDS011;31821;51.880;-0.518;2022-09-12T08:22:09;6.03;;;4.88;;
46080;SDS011;31821;51.880;-0.518;2022-09-12T08:24:35;4.18;;;3.58;;
46080;SDS011;31821;51.880;-0.518;2022-09-12T08:27:03;5.38;;;3.53;;
46080;SDS011;31821;51.880;-0.518;2022-09-12T08:29:29;5.45;;;4.00;;
46080;SDS011;31821;51.880;-0.518;2022-09-12T08:31:54;5.70;;;4.50;;
46080;SDS011;31821;51.880;-0.518;2022-09-12T08:34:20;5.40;;;3.67;;
46080;SDS011;31821;51.880;-0.518;2022-09-12T08:36:45;6.25;;;3.67;;
46080;SDS011;31821;51.880;-0.518;2022-09-12T08:39:11;5.50;;;3.55;;
46080;SDS011;31821;51.880;-0.518;2022-09-12T08:41:39;4.03;;;3.15;;
46080;SDS011;31821;51.880;-0.518;2022-09-12T08:52:19;3.97;;;1.98;;
46080;SDS011;31821;51.880;-0.518;2022-09-12T08:54:57;3.22;;;2.05;;
46080;SDS011;31821;51.880;-0.518;2022-09-12T08:57:23;2.95;;;1.83;;
46080;SDS011;31821;51.880;-0.518;2022-09-12T08:59:49;3.03;;;1.85;;
46080;SDS011;31821;51.880;-0.518;2022-09-12T09:05:11;3.58;;;1.75;;
46080;SDS011;31821;51.880;-0.518;2022-09-12T09:18:33;4.88;;;1.70;;
46080;SDS011;31821;51.880;-0.518;2022-09-12T09:21:01;3.67;;;1.70;;
46080;SDS011;31821;51.880;-0.518;2022-09-12T09:23:47;2.63;;;1.65;;
46080;SDS011;31821;51.880;-0.518;2022-09-12T09:26:21;3.73;;;1.80;;
46080;SDS011;31821;51.880;-0.518;2022-09-12T09:28:53;3.92;;;1.70;;
46080;SDS011;31821;51.880;-0.518;2022-09-12T09:31:24;1.80;;;1.40;;
46080;SDS011;31821;51.880;-0.518;2022-09-12T09:33:53;3.63;;;1.80;;
46080;SDS011;31821;51.880;-0.518;2022-09-12T09:36:32;2.45;;;1.50;;
46080;SDS011;31821;51.880;-0.518;2022-09-12T09:39:12;4.72;;;1.65;;
46080;SDS011;31821;51.880;-0.518;2022-09-12T09:41:48;3.15;;;1.90;;
46080;SDS011;31821;51.880;-0.518;2022-09-12T09:44:27;2.60;;;1.77;;
46080;SDS011;31821;51.880;-0.518;2022-09-12T09:46:54;4.65;;;2.63;;
46080;SDS011;31821;51.880;-0.518;2022-09-12T09:49:23;2.92;;;1.80;;
46080;SDS011;31821;51.880;-0.518;2022-09-12T09:51:51;5.28;;;1.83;;
46080;SDS011;31821;51.880;-0.518;2022-09-12T09:54:20;2.88;;;1.65;;
46080;SDS011;31821;51.880;-0.518;2022-09-12T09:56:49;2.30;;;1.60;;
46080;SDS011;31821;51.880;-0.518;2022-09-12T09:59:19;2.70;;;1.65;;
46080;SDS011;31821;51.880;-0.518;2022-09-12T10:02:23;2.75;;;1.40;;
46080;SDS011;31821;51.880;-0.518;2022-09-12T10:04:53;4.00;;;1.88;;
46080;SDS011;31821;51.880;-0.518;2022-09-12T10:07:21;2.88;;;1.40;;
46080;SDS011;31821;51.880;-0.518;2022-09-12T10:12:36;2.13;;;1.40;;
46080;SDS011;31821;51.880;-0.518;2022-09-12T10:15:03;2.72;;;1.48;;
46080;SDS011;31821;51.880;-0.518;2022-09-12T10:17:43;3.42;;;1.80;;
46080;SDS011;31821;51.880;-0.518;2022-09-12T10:25:46;3.63;;;1.60;;
46080;SDS011;31821;51.880;-0.518;2022-09-12T10:28:22;2.40;;;1.80;;
46080;SDS011;31821;51.880;-0.518;2022-09-12T10:30:55;3.80;;;1.67;;
46080;SDS011;31821;51.880;-0.518;2022-09-12T10:33:22;3.78;;;1.80;;
46080;SDS011;31821;51.880;-0.518;2022-09-12T10:35:50;2.72;;;1.60;;
46080;SDS011;31821;51.880;-0.518;2022-09-12T10:40:59;2.35;;;1.58;;
46080;SDS011;31821;51.880;-0.518;2022-09-12T10:43:35;4.90;;;1.67;;
46080;SDS011;31821;51.880;-0.518;2022-09-12T10:46:19;2.92;;;1.45;;
46080;SDS011;31821;51.880;-0.518;2022-09-12T10:48:48;2.92;;;1.40;;
46080;SDS011;31821;51.880;-0.518;2022-09-12T10:53:59;3.65;;;1.85;;
46080;SDS011;31821;51.880;-0.518;2022-09-12T10:56:30;3.53;;;1.45;;
46080;SDS011;31821;51.880;-0.518;2022-09-12T11:01:41;3.72;;;1.38;;
46080;SDS011;31821;51.880;-0.518;2022-09-12T11:07:42;2.72;;;1.40;;
46080;SDS011;31821;51.880;-0.518;2022-09-12T11:13:11;2.28;;;1.50;;
46080;SDS011;31821;51.880;-0.518;2022-09-12T11:15:59;2.00;;;1.23;;
46080;SDS011;31821;51.880;-0.518;2022-09-12T11:23:50;3.30;;;1.20;;
46080;SDS011;31821;51.880;-0.518;2022-09-12T11:26:52;4.30;;;1.52;;
46080;SDS011;31821;51.880;-0.518;2022-09-12T11:32:31;2.50;;;1.23;;
46080;SDS011;31821;51.880;-0.518;2022-09-12T11:35:18;3.10;;;1.25;;
46080;SDS011;31821;51.880;-0.518;2022-09-12T11:40:36;2.85;;;1.30;;
46080;SDS011;31821;51.880;-0.518;2022-09-12T11:43:09;1.77;;;1.20;;
46080;SDS011;31821;51.880;-0.518;2022-09-12T11:45:40;2.10;;;1.30;;
46080;SDS011;31821;51.880;-0.518;2022-09-12T11:48:10;2.63;;;1.35;;
46080;SDS011;31821;51.880;-0.518;2022-09-12T11:50:58;1.65;;;1.30;;
46080;SDS011;31821;51.880;-0.518;2022-09-12T11:53:28;2.42;;;1.30;;
46080;SDS011;31821;51.880;-0.518;2022-09-12T11:56:01;1.70;;;1.20;;
46080;SDS011;31821;51.880;-0.518;2022-09-12T11:58:33;2.25;;;1.30;;
46080;SDS011;31821;51.880;-0.518;2022-09-12T12:01:12;2.22;;;1.23;;
46080;SDS011;31821;51.880;-0.518;2022-09-12T12:03:45;2.33;;;1.30;;
46080;SDS011;31821;51.880;-0.518;2022-09-12T12:06:20;2.25;;;1.25;;
46080;SDS011;31821;51.880;-0.518;2022-09-12T12:08:54;1.75;;;1.25;;
46080;SDS011;31821;51.880;-0.518;2022-09-12T12:11:27;2.15;;;1.27;;
46080;SDS011;31821;51.880;-0.518;2022-09-12T12:13:58;3.65;;;1.55;;
46080;SDS011;31821;51.880;-0.518;2022-09-12T12:16:30;2.47;;;1.30;;
46080;SDS011;31821;51.880;-0.518;2022-09-12T12:21:39;2.53;;;1.50;;
46080;SDS011;31821;51.880;-0.518;2022-09-12T12:48:14;1.92;;;1.23;;
46080;SDS011;31821;51.880;-0.518;2022-09-12T12:50:40;1.90;;;1.10;;
46080;SDS011;31821;51.880;-0.518;2022-09-12T12:53:16;2.38;;;1.00;;
46080;SDS011;31821;51.880;-0.518;2022-09-12T13:01:02;2.25;;;1.10;;
46080;SDS011;31821;51.880;-0.518;2022-09-12T13:03:40;3.40;;;1.08;;
46080;SDS011;31821;51.880;-0.518;2022-09-12T13:09:03;2.08;;;1.23;;
46080;SDS011;31821;51.880;-0.518;2022-09-12T13:11:33;2.53;;;1.35;;
46080;SDS011;31821;51.880;-0.518;2022-09-12T13:14:00;2.22;;;1.30;;
46080;SDS011;31821;51.880;-0.518;2022-09-12T13:16:35;2.03;;;1.10;;
46080;SDS011;31821;51.880;-0.518;2022-09-12T13:19:03;2.63;;;1.35;;
46080;SDS011;31821;51.880;-0.518;2022-09-12T13:21:37;1.85;;;1.20;;
46080;SDS011;31821;51.880;-0.518;2022-09-12T13:24:12;1.40;;;1.10;;
46080;SDS011;31821;51.880;-0.518;2022-09-12T13:26:41;2.42;;;1.30;;
46080;SDS011;31821;51.880;-0.518;2022-09-12T13:29:22;2.25;;;1.10;;
46080;SDS011;31821;51.880;-0.518;2022-09-12T13:31:52;1.42;;;1.23;;
46080;SDS011;31821;51.880;-0.518;2022-09-12T13:34:27;2.67;;;1.38;;
46080;SDS011;31821;51.880;-0.518;2022-09-12T13:37:03;3.10;;;1.55;;
46080;SDS011;31821;51.880;-0.518;2022-09-12T13:42:41;3.40;;;1.20;;
46080;SDS011;31821;51.880;-0.518;2022-09-12T13:47:45;3.00;;;1.55;;
46080;SDS011;31821;51.880;-0.518;2022-09-12T13:50:19;5.35;;;1.67;;
46080;SDS011;31821;51.880;-0.518;2022-09-12T13:52:49;2.78;;;1.20;;
46080;SDS011;31821;51.880;-0.518;2022-09-12T13:55:36;2.28;;;1.30;;
46080;SDS011;31821;51.880;-0.518;2022-09-12T13:58:14;3.95;;;1.35;;
46080;SDS011;31821;51.880;-0.518;2022-09-12T14:00:43;2.60;;;1.20;;
46080;SDS011;31821;51.880;-0.518;2022-09-12T14:06:23;3.20;;;1.20;;
46080;SDS011;31821;51.880;-0.518;2022-09-12T14:08:52;3.05;;;1.48;;
46080;SDS011;31821;51.880;-0.518;2022-09-12T14:11:25;4.38;;;2.00;;
46080;SDS011;31821;51.880;-0.518;2022-09-12T14:13:52;3.05;;;1.15;;
46080;SDS011;31821;51.880;-0.518;2022-09-12T14:16:20;2.75;;;1.40;;
46080;SDS011;31821;51.880;-0.518;2022-09-12T14:18:48;3.17;;;1.40;;
46080;SDS011;31821;51.880;-0.518;2022-09-12T14:23:54;1.80;;;1.30;;
46080;SDS011;31821;51.880;-0.518;2022-09-12T14:26:21;1.33;;;1.10;;
46080;SDS011;31821;51.880;-0.518;2022-09-12T14:28:48;2.00;;;1.00;;
46080;SDS011;31821;51.880;-0.518;2022-09-12T14:31:28;2.17;;;1.58;;
46080;SDS011;31821;51.880;-0.518;2022-09-12T14:34:06;3.50;;;1.40;;
46080;SDS011;31821;51.880;-0.518;2022-09-12T14:39:16;2.90;;;1.40;;
46080;SDS011;31821;51.880;-0.518;2022-09-12T14:42:02;2.65;;;1.50;;
46080;SDS011;31821;51.880;-0.518;2022-09-12T14:44:30;4.38;;;1.50;;
46080;SDS011;31821;51.880;-0.518;2022-09-12T14:47:00;2.35;;;1.27;;
46080;SDS011;31821;51.880;-0.518;2022-09-12T14:49:39;4.25;;;2.15;;
46080;SDS011;31821;51.880;-0.518;2022-09-12T14:52:06;3.10;;;1.83;;
46080;SDS011;31821;51.880;-0.518;2022-09-12T14:55:00;3.03;;;1.58;;
46080;SDS011;31821;51.880;-0.518;2022-09-12T14:57:38;2.10;;;1.30;;
46080;SDS011;31821;51.880;-0.518;2022-09-12T15:00:09;3.83;;;1.42;;
46080;SDS011;31821;51.880;-0.518;2022-09-12T15:02:35;2.28;;;1.40;;
46080;SDS011;31821;51.880;-0.518;2022-09-12T15:07:33;5.93;;;1.90;;
46080;SDS011;31821;51.880;-0.518;2022-09-12T15:10:02;2.88;;;1.67;;
46080;SDS011;31821;51.880;-0.518;2022-09-12T15:12:49;6.18;;;1.80;;
46080;SDS011;31821;51.880;-0.518;2022-09-12T15:15:28;3.92;;;1.67;;
46080;SDS011;31821;51.880;-0.518;2022-09-12T15:17:53;3.35;;;1.60;;
46080;SDS011;31821;51.880;-0.518;2022-09-12T15:20:19;3.42;;;1.80;;
46080;SDS011;31821;51.880;-0.518;2022-09-12T15:22:44;2.05;;;1.30;;
46080;SDS011;31821;51.880;-0.518;2022-09-12T15:25:10;2.80;;;1.40;;
46080;SDS011;31821;51.880;-0.518;2022-09-12T15:27:36;2.33;;;1.60;;
46080;SDS011;31821;51.880;-0.518;2022-09-12T15:30:05;3.10;;;1.90;;
46080;SDS011;31821;51.880;-0.518;2022-09-12T15:32:32;2.85;;;1.63;;
46080;SDS011;31821;51.880;-0.518;2022-09-12T15:34:58;2.13;;;1.30;;
46080;SDS011;31821;51.880;-0.518;2022-09-12T15:37:23;4.45;;;1.60;;
46080;SDS011;31821;51.880;-0.518;2022-09-12T15:39:49;4.22;;;1.60;;
46080;SDS011;31821;51.880;-0.518;2022-09-12T15:42:16;2.75;;;1.40;;
46080;SDS011;31821;51.880;-0.518;2022-09-12T15:44:44;2.13;;;1.33;;
46080;SDS011;31821;51.880;-0.518;2022-09-12T15:47:10;2.42;;;1.50;;
46080;SDS011;31821;51.880;-0.518;2022-09-12T15:49:37;3.45;;;1.52;;
46080;SDS011;31821;51.880;-0.518;2022-09-12T15:52:03;1.58;;;1.25;;
46080;SDS011;31821;51.880;-0.518;2022-09-12T15:54:29;2.80;;;1.40;;
46080;SDS011;31821;51.880;-0.518;2022-09-12T15:56:54;1.88;;;1.23;;
46080;SDS011;31821;51.880;-0.518;2022-09-12T15:59:20;3.40;;;1.75;;
46080;SDS011;31821;51.880;-0.518;2022-09-12T16:01:45;3.08;;;1.48;;
46080;SDS011;31821;51.880;-0.518;2022-09-12T16:04:20;2.47;;;1.33;;
46080;SDS011;31821;51.880;-0.518;2022-09-12T16:06:51;5.53;;;1.73;;
46080;SDS011;31821;51.880;-0.518;2022-09-12T16:09:18;3.78;;;1.80;;
46080;SDS011;31821;51.880;-0.518;2022-09-12T16:11:44;5.22;;;2.10;;
46080;SDS011;31821;51.880;-0.518;2022-09-12T16:14:16;2.97;;;1.70;;
46080;SDS011;31821;51.880;-0.518;2022-09-12T16:16:43;3.63;;;1.67;;
46080;SDS011;31821;51.880;-0.518;2022-09-12T16:19:15;2.65;;;1.50;;
46080;SDS011;31821;51.880;-0.518;2022-09-12T16:21:41;2.85;;;1.60;;
46080;SDS011;31821;51.880;-0.518;2022-09-12T16:24:07;3.95;;;1.67;;
46080;SDS011;31821;51.880;-0.518;2022-09-12T16:26:32;3.13;;;1.63;;
46080;SDS011;31821;51.880;-0.518;2022-09-12T16:28:58;3.92;;;1.55;;
46080;SDS011;31821;51.880;-0.518;2022-09-12T16:31:24;3.42;;;1.70;;
46080;SDS011;31821;51.880;-0.518;2022-09-12T16:33:51;3.25;;;1.55;;
46080;SDS011;31821;51.880;-0.518;2022-09-12T16:36:18;4.53;;;1.83;;
46080;SDS011;31821;51.880;-0.518;2022-09-12T16:38:45;3.42;;;1.58;;
46080;SDS011;31821;51.880;-0.518;2022-09-12T16:41:15;2.28;;;1.50;;
46080;SDS011;31821;51.880;-0.518;2022-09-12T16:43:42;3.65;;;1.50;;
46080;SDS011;31821;51.880;-0.518;2022-09-12T16:46:15;2.60;;;1.50;;
46080;SDS011;31821;51.880;-0.518;2022-09-12T16:48:46;6.72;;;1.67;;
46080;SDS011;31821;51.880;-0.518;2022-09-12T16:51:14;3.97;;;1.70;;
46080;SDS011;31821;51.880;-0.518;2022-09-12T16:53:41;2.78;;;1.40;;
46080;SDS011;31821;51.880;-0.518;2022-09-12T16:56:07;3.35;;;1.30;;
46080;SDS011;31821;51.880;-0.518;2022-09-12T16:58:34;2.38;;;1.58;;
46080;SDS011;31821;51.880;-0.518;2022-09-12T17:01:02;2.15;;;1.40;;
46080;SDS011;31821;51.880;-0.518;2022-09-12T17:03:29;4.18;;;1.85;;
46080;SDS011;31821;51.880;-0.518;2022-09-12T17:05:59;3.25;;;1.60;;
46080;SDS011;31821;51.880;-0.518;2022-09-12T17:08:26;3.13;;;1.63;;
46080;SDS011;31821;51.880;-0.518;2022-09-12T17:10:57;3.17;;;1.60;;
46080;SDS011;31821;51.880;-0.518;2022-09-12T17:13:24;3.13;;;1.40;;
46080;SDS011;31821;51.880;-0.518;2022-09-12T17:15:49;2.22;;;1.58;;
46080;SDS011;31821;51.880;-0.518;2022-09-12T17:18:15;4.07;;;1.88;;
46080;SDS011;31821;51.880;-0.518;2022-09-12T17:20:40;2.60;;;1.67;;
46080;SDS011;31821;51.880;-0.518;2022-09-12T17:23:06;5.38;;;1.50;;